createdAt,value
2023-03-08T05:15:13.655Z,49.40
2023-03-08T05:16:13.656Z,56.40
2023-03-08T05:17:13.595Z,51.80
2023-03-08T05:18:13.584Z,56.50
2023-03-08T05:19:13.564Z,54.70
2023-03-08T05:20:13.583Z,48.70
2023-03-08T05:21:13.545Z,53.90
2023-03-08T05:22:13.532Z,46.10
2023-03-08T05:23:13.516Z,50.80
2023-03-08T05:24:13.508Z,50.70
2023-03-08T05:25:13.501Z,50.00
2023-03-08T05:26:13.493Z,48.10
2023-03-08T05:27:13.462Z,45.70
2023-03-08T05:28:13.461Z,52.10
2023-03-08T05:29:13.441Z,45.40
2023-03-08T05:30:13.431Z,52.80
2023-03-08T05:31:13.524Z,55.00
2023-03-08T05:32:13.455Z,52.20
2023-03-08T05:33:13.381Z,50.70
2023-03-08T05:34:13.380Z,48.90
2023-03-08T05:35:13.366Z,51.10
2023-03-08T05:36:13.358Z,54.70
2023-03-08T05:37:13.336Z,51.80
2023-03-08T05:38:13.326Z,52.60
2023-03-08T05:39:13.310Z,49.40
2023-03-08T05:40:13.317Z,56.80
2023-03-08T05:41:13.297Z,55.40
2023-03-08T05:42:13.283Z,55.60
2023-03-08T05:43:13.283Z,54.90
2023-03-08T05:44:13.264Z,55.20
2023-03-08T05:45:13.270Z,60.40
2023-03-08T05:46:13.287Z,55.20
2023-03-08T05:47:13.205Z,63.90
2023-03-08T05:48:13.204Z,58.70
2023-03-08T05:49:13.184Z,57.80
2023-03-08T05:50:13.183Z,63.20
2023-03-08T05:51:13.164Z,65.10
2023-03-08T05:52:13.143Z,61.30
2023-03-08T05:53:13.123Z,62.00
2023-03-08T05:54:13.113Z,59.70
2023-03-08T05:55:13.103Z,66.00
2023-03-08T05:56:13.112Z,61.20
2023-03-08T05:57:13.073Z,66.90
2023-03-08T05:58:13.068Z,62.20
2023-03-08T05:59:13.054Z,58.00
2023-03-08T06:00:13.043Z,59.70
2023-03-08T06:01:13.039Z,52.70
2023-03-08T06:02:13.041Z,58.60
2023-03-08T06:03:13.016Z,58.00
2023-03-08T06:04:12.988Z,55.40
2023-03-08T06:05:12.975Z,100.70
2023-03-08T06:06:13.016Z,101.40
2023-03-08T06:07:12.936Z,109.80
2023-03-08T06:08:12.941Z,92.20
2023-03-08T06:09:12.927Z,80.20
2023-03-08T06:10:12.922Z,75.60
2023-03-08T06:11:12.895Z,49.20
2023-03-08T06:12:12.893Z,45.80
2023-03-08T06:13:12.885Z,45.60
2023-03-08T06:14:13.413Z,42.10
2023-03-08T06:15:12.860Z,38.10
2023-03-08T06:16:12.856Z,38.60
2023-03-08T06:17:12.824Z,37.40
2023-03-08T06:18:12.791Z,32.70
2023-03-08T06:19:12.791Z,34.10
2023-03-08T06:20:12.799Z,38.20
2023-03-08T06:21:12.760Z,36.00
2023-03-08T06:22:12.778Z,35.60
2023-03-08T06:23:12.760Z,35.30
2023-03-08T06:24:12.724Z,31.00
2023-03-08T06:25:12.723Z,33.40
2023-03-08T06:26:12.693Z,31.00
2023-03-08T06:27:12.699Z,32.70
2023-03-08T06:28:12.670Z,33.60
2023-03-08T06:29:12.660Z,31.80
2023-03-08T06:30:12.650Z,33.00
2023-03-08T06:31:12.706Z,35.30
2023-03-08T06:32:12.674Z,37.00
2023-03-08T06:33:12.611Z,34.90
2023-03-08T06:34:12.592Z,34.20
2023-03-08T06:35:12.586Z,33.90
2023-03-08T06:36:12.568Z,33.70
2023-03-08T06:37:12.578Z,34.90
2023-03-08T06:38:12.546Z,40.00
2023-03-08T06:39:12.540Z,37.70
2023-03-08T06:40:12.522Z,40.90
2023-03-08T06:41:12.511Z,40.10
2023-03-08T06:42:12.519Z,38.50
2023-03-08T06:43:12.494Z,36.10
2023-03-08T06:44:12.471Z,37.20
2023-03-08T06:45:12.485Z,41.00
2023-03-08T06:46:12.498Z,41.30
2023-03-08T06:47:12.453Z,40.70
2023-03-08T06:48:12.414Z,40.60
2023-03-08T06:49:12.413Z,37.60
2023-03-08T06:50:12.392Z,42.00
2023-03-08T06:51:12.394Z,111.60
2023-03-08T06:52:12.385Z,52.90
2023-03-08T06:53:12.353Z,43.60
2023-03-08T06:54:12.335Z,55.20
2023-03-08T06:55:12.334Z,52.10
2023-03-08T06:56:12.317Z,55.80
2023-03-08T06:57:12.313Z,55.10
2023-03-08T06:58:12.286Z,54.70
2023-03-08T06:59:12.282Z,65.80
2023-03-08T07:00:12.293Z,60.10
2023-03-08T07:01:12.291Z,61.00
2023-03-08T07:02:12.253Z,65.90
2023-03-08T07:03:12.238Z,58.90
2023-03-08T07:04:12.224Z,64.20
2023-03-08T07:05:12.200Z,62.50
2023-03-08T07:06:12.191Z,62.30
2023-03-08T07:07:12.192Z,63.20
2023-03-08T07:08:12.175Z,59.20
2023-03-08T07:09:12.177Z,60.50
2023-03-08T07:10:12.126Z,67.40
2023-03-08T07:11:12.114Z,61.60
2023-03-08T07:12:12.104Z,64.10
2023-03-08T07:13:12.109Z,77.50
2023-03-08T07:14:12.074Z,67.40
2023-03-08T07:15:12.066Z,77.30
2023-03-08T07:16:12.106Z,66.80
2023-03-08T07:17:12.031Z,70.60
2023-03-08T07:18:12.836Z,68.30
2023-03-08T07:19:12.014Z,66.90
2023-03-08T07:20:12.001Z,92.40
2023-03-08T07:21:11.981Z,78.40
2023-03-08T07:22:11.980Z,67.70
2023-03-08T07:23:11.984Z,70.00
2023-03-08T07:24:11.960Z,81.20
2023-03-08T07:25:11.937Z,69.00
2023-03-08T07:26:11.931Z,82.00
2023-03-08T07:27:11.913Z,72.50
2023-03-08T07:28:11.935Z,61.20
2023-03-08T07:29:11.885Z,71.60
2023-03-08T07:30:11.905Z,81.70
2023-03-08T07:31:11.873Z,96.10
2023-03-08T07:32:11.933Z,81.20
2023-03-08T07:33:12.009Z,68.30
2023-03-08T07:34:11.821Z,86.50
2023-03-08T07:35:11.810Z,67.50
2023-03-08T07:36:11.835Z,83.20
2023-03-08T07:37:11.781Z,70.50
2023-03-08T07:38:11.771Z,70.70
2023-03-08T07:39:11.757Z,64.80
2023-03-08T07:40:11.744Z,60.30
2023-03-08T07:41:11.836Z,62.40
2023-03-08T07:42:11.722Z,65.30
2023-03-08T07:43:11.727Z,81.90
2023-03-08T07:44:11.689Z,76.30
2023-03-08T07:45:11.678Z,90.20
2023-03-08T07:46:11.705Z,85.30
2023-03-08T07:47:11.671Z,56.90
2023-03-08T07:48:11.648Z,53.90
2023-03-08T07:49:11.663Z,61.60
2023-03-08T07:50:11.616Z,49.00
2023-03-08T07:51:11.598Z,50.30
2023-03-08T07:52:11.588Z,54.00
2023-03-08T07:53:11.618Z,65.00
2023-03-08T07:54:11.562Z,61.60
2023-03-08T07:55:11.559Z,58.90
2023-03-08T07:56:11.538Z,80.70
2023-03-08T07:57:11.536Z,61.70
2023-03-08T07:58:11.534Z,68.40
2023-03-08T07:59:11.496Z,72.60
2023-03-08T08:00:11.493Z,67.50
2023-03-08T08:01:11.493Z,64.10
2023-03-08T08:02:11.473Z,98.20
2023-03-08T08:03:11.509Z,103.80
2023-03-08T08:04:11.482Z,78.60
2023-03-08T08:05:11.464Z,68.40
2023-03-08T08:06:11.414Z,58.50
2023-03-08T08:07:11.413Z,53.20
2023-03-08T08:08:11.396Z,55.50
2023-03-08T08:09:11.366Z,52.70
2023-03-08T08:10:11.363Z,58.90
2023-03-08T08:11:11.344Z,62.40
2023-03-08T08:12:11.352Z,91.30
2023-03-08T08:13:11.342Z,72.60
2023-03-08T08:14:11.310Z,53.20
2023-03-08T08:15:11.290Z,54.30
2023-03-08T08:16:11.480Z,55.90
2023-03-08T08:17:11.267Z,56.20
2023-03-08T08:18:11.271Z,56.20
2023-03-08T08:19:11.234Z,56.00
2023-03-08T08:20:11.236Z,51.30
2023-03-08T08:21:11.249Z,56.50
2023-03-08T08:22:11.198Z,69.10
2023-03-08T08:23:11.212Z,76.90
2023-03-08T08:24:11.178Z,117.10
2023-03-08T08:25:11.157Z,73.80
2023-03-08T08:26:11.152Z,66.40
2023-03-08T08:27:11.139Z,55.80
2023-03-08T08:28:11.126Z,54.70
2023-03-08T08:29:11.142Z,68.10
2023-03-08T08:30:11.103Z,58.70
2023-03-08T08:31:11.125Z,92.20
2023-03-08T08:32:11.132Z,97.20
2023-03-08T08:33:11.045Z,93.60
2023-03-08T08:34:11.058Z,74.10
2023-03-08T08:35:11.024Z,64.50
2023-03-08T08:36:11.056Z,55.80
2023-03-08T08:37:11.003Z,50.70
2023-03-08T08:38:10.994Z,57.40
2023-03-08T08:39:10.989Z,113.30
2023-03-08T08:40:10.962Z,80.70
2023-03-08T08:41:10.959Z,57.50
2023-03-08T08:42:10.943Z,55.90
2023-03-08T08:43:10.921Z,61.90
2023-03-08T08:44:10.931Z,52.80
2023-03-08T08:45:10.907Z,55.50
2023-03-08T08:46:10.973Z,50.20
2023-03-08T08:47:10.874Z,46.90
2023-03-08T08:48:10.871Z,48.90
2023-03-08T08:49:10.883Z,48.00
2023-03-08T08:50:12.939Z,44.10
2023-03-08T08:51:10.826Z,44.50
2023-03-08T08:52:10.810Z,39.10
2023-03-08T08:53:10.809Z,43.80
2023-03-08T08:54:10.937Z,42.70
2023-03-08T08:55:10.766Z,47.10
2023-03-08T08:56:20.333Z,46.70
2023-03-08T08:57:11.742Z,46.10
2023-03-08T08:58:10.736Z,45.30
2023-03-08T08:59:10.719Z,46.60
2023-03-08T09:00:10.707Z,44.10
2023-03-08T09:01:10.698Z,44.20
2023-03-08T09:02:10.684Z,42.70
2023-03-08T09:03:10.665Z,41.80
2023-03-08T09:04:10.714Z,36.30
2023-03-08T09:05:10.689Z,35.10
2023-03-08T09:06:10.632Z,34.50
2023-03-08T09:07:10.606Z,35.80
2023-03-08T09:08:10.606Z,34.30
2023-03-08T09:09:10.598Z,34.90
2023-03-08T09:10:10.579Z,34.80
2023-03-08T09:11:11.405Z,37.10
2023-03-08T09:12:10.545Z,38.40
2023-03-08T09:13:10.558Z,32.70
2023-03-08T09:14:10.533Z,34.60
2023-03-08T09:15:10.555Z,34.50
2023-03-08T09:16:10.600Z,33.60
2023-03-08T09:17:10.486Z,32.10
2023-03-08T09:18:10.488Z,33.20
2023-03-08T09:19:10.489Z,34.40
2023-03-08T09:20:10.465Z,31.10
2023-03-08T09:21:10.466Z,33.60
2023-03-08T09:22:10.427Z,32.60
2023-03-08T09:23:10.496Z,29.00
2023-03-08T09:24:10.420Z,28.90
2023-03-08T09:25:10.385Z,28.30
2023-03-08T09:26:10.375Z,30.00
2023-03-08T09:27:10.358Z,30.10
2023-03-08T09:28:10.372Z,29.90
2023-03-08T09:29:10.348Z,28.40
2023-03-08T09:30:10.355Z,27.70
2023-03-08T09:31:10.319Z,28.20
2023-03-08T09:32:10.512Z,28.70
2023-03-08T09:33:17.332Z,28.30
2023-03-08T09:34:10.281Z,29.80
2023-03-08T09:35:10.249Z,30.00
2023-03-08T09:36:10.250Z,28.00
2023-03-08T09:37:10.232Z,31.50
2023-03-08T09:38:10.223Z,26.90
2023-03-08T09:39:10.229Z,25.80
2023-03-08T09:40:10.200Z,26.60
2023-03-08T09:41:10.178Z,23.80
2023-03-08T09:42:10.183Z,29.70
2023-03-08T09:43:10.150Z,28.30
2023-03-08T09:44:10.161Z,25.80
2023-03-08T09:45:10.131Z,26.20
2023-03-08T09:46:10.161Z,24.10
2023-03-08T09:47:10.109Z,17.50
2023-03-08T09:48:10.190Z,16.40
2023-03-08T09:49:10.087Z,18.50
2023-03-08T09:50:10.085Z,15.50
2023-03-08T09:51:10.052Z,17.70
2023-03-08T09:52:10.052Z,20.20
2023-03-08T09:53:10.020Z,20.90
2023-03-08T09:54:10.040Z,19.60
2023-03-08T09:55:10.057Z,18.80
2023-03-08T09:56:09.984Z,18.20
2023-03-08T09:57:10.003Z,19.10
2023-03-08T09:58:09.989Z,20.20
2023-03-08T09:59:09.932Z,16.00
2023-03-08T10:00:09.991Z,17.60
2023-03-08T10:01:09.941Z,15.30
2023-03-08T10:02:09.909Z,15.00
2023-03-08T10:03:09.931Z,13.00
2023-03-08T10:04:09.917Z,13.30
2023-03-08T10:05:13.639Z,16.00
2023-03-08T10:06:09.858Z,20.50
2023-03-08T10:07:09.838Z,16.10
2023-03-08T10:08:09.852Z,18.00
2023-03-08T10:09:09.808Z,19.30
2023-03-08T10:10:09.833Z,16.80
2023-03-08T10:11:09.805Z,24.50
2023-03-08T10:12:13.162Z,19.40
2023-03-08T10:13:09.800Z,17.70
2023-03-08T10:14:09.746Z,13.80
2023-03-08T10:15:09.744Z,15.60
2023-03-08T10:16:09.738Z,16.50
2023-03-08T10:17:09.707Z,16.70
2023-03-08T10:18:09.694Z,11.90
2023-03-08T10:19:09.699Z,12.80
2023-03-08T10:20:09.683Z,11.60
2023-03-08T10:21:09.652Z,14.10
2023-03-08T10:22:09.656Z,11.40
2023-03-08T10:23:09.624Z,11.80
2023-03-08T10:24:09.621Z,11.50
2023-03-08T10:25:09.624Z,10.90
2023-03-08T10:26:09.590Z,10.80
2023-03-08T10:27:09.574Z,10.30
2023-03-08T10:28:09.565Z,14.30
2023-03-08T10:29:09.553Z,11.50
2023-03-08T10:30:09.551Z,12.00
2023-03-08T10:31:09.586Z,14.00
2023-03-08T10:32:09.569Z,11.60
2023-03-08T10:33:09.494Z,14.30
2023-03-08T10:34:09.484Z,13.00
2023-03-08T10:35:09.494Z,14.10
2023-03-08T10:36:09.568Z,14.00
2023-03-08T10:37:09.463Z,13.40
2023-03-08T10:38:09.434Z,13.80
2023-03-08T10:39:09.432Z,12.80
2023-03-08T10:40:09.464Z,13.90
2023-03-08T10:41:09.395Z,14.00
2023-03-08T10:42:09.393Z,17.60
2023-03-08T10:43:09.375Z,14.60
2023-03-08T10:44:09.366Z,12.90
2023-03-08T10:45:09.363Z,14.50
2023-03-08T10:46:09.392Z,13.90
2023-03-08T10:47:09.324Z,16.00
2023-03-08T10:48:09.303Z,14.30
2023-03-08T10:49:09.323Z,15.40
2023-03-08T10:50:09.290Z,15.50
2023-03-08T10:51:09.284Z,14.20
2023-03-08T10:52:09.295Z,13.80
2023-03-08T10:53:09.243Z,13.20
2023-03-08T10:54:09.245Z,12.70
2023-03-08T10:55:09.248Z,15.20
2023-03-08T10:56:09.235Z,10.40
2023-03-08T10:57:09.211Z,11.10
2023-03-08T10:58:09.181Z,13.60
2023-03-08T10:59:09.181Z,13.80
2023-03-08T11:00:11.242Z,16.60
2023-03-08T11:01:09.141Z,11.60
2023-03-08T11:02:09.121Z,10.60
2023-03-08T11:03:09.117Z,12.10
2023-03-08T11:04:09.122Z,14.60
2023-03-08T11:05:09.099Z,17.00
2023-03-08T11:06:10.991Z,13.40
2023-03-08T11:07:09.059Z,14.60
2023-03-08T11:08:09.050Z,13.90
2023-03-08T11:09:09.048Z,13.00
2023-03-08T11:10:09.019Z,11.60
2023-03-08T11:11:09.020Z,9.00
2023-03-08T11:12:10.601Z,9.90
2023-03-08T11:13:08.985Z,10.50
2023-03-08T11:14:08.990Z,10.50
2023-03-08T11:15:08.956Z,10.60
2023-03-08T11:16:08.991Z,11.20
2023-03-08T11:17:08.960Z,8.50
2023-03-08T11:18:09.519Z,10.90
2023-03-08T11:19:09.071Z,8.20
2023-03-08T11:20:08.898Z,9.70
2023-03-08T11:21:08.889Z,8.40
2023-03-08T11:22:08.874Z,9.70
2023-03-08T11:23:08.857Z,8.00
2023-03-08T11:24:08.899Z,7.00
2023-03-08T11:25:08.829Z,7.80
2023-03-08T11:26:08.813Z,9.00
2023-03-08T11:27:08.886Z,7.10
2023-03-08T11:28:08.837Z,7.80
2023-03-08T11:29:08.945Z,8.40
2023-03-08T11:30:10.224Z,7.80
2023-03-08T11:31:08.860Z,7.00
2023-03-08T11:32:08.770Z,9.30
2023-03-08T11:33:08.897Z,5.80
2023-03-08T11:34:08.779Z,6.70
2023-03-08T11:35:08.692Z,6.30
2023-03-08T11:36:08.730Z,7.90
2023-03-08T11:37:08.664Z,6.10
2023-03-08T11:38:08.660Z,9.20
2023-03-08T11:39:08.662Z,6.50
2023-03-08T11:40:08.640Z,4.60
2023-03-08T11:41:08.621Z,6.10
2023-03-08T11:42:08.922Z,4.60
2023-03-08T11:43:08.600Z,5.40
2023-03-08T11:44:08.605Z,6.20
2023-03-08T11:45:08.578Z,8.20
2023-03-08T11:46:08.576Z,7.90
2023-03-08T11:47:08.541Z,5.60
2023-03-08T11:48:08.522Z,8.20
2023-03-08T11:49:08.553Z,6.90
2023-03-08T11:50:08.501Z,7.10
2023-03-08T11:51:08.499Z,6.80
2023-03-08T11:52:08.491Z,3.90
2023-03-08T11:53:08.460Z,5.90
2023-03-08T11:54:08.458Z,6.80
2023-03-08T11:55:08.457Z,7.00
2023-03-08T11:56:08.424Z,7.70
2023-03-08T11:57:08.409Z,6.70
2023-03-08T11:58:08.386Z,8.00
2023-03-08T11:59:08.405Z,7.30
2023-03-08T12:00:08.369Z,6.70
2023-03-08T12:01:08.353Z,7.80
2023-03-08T12:02:08.346Z,9.50
2023-03-08T12:03:08.460Z,7.50
2023-03-08T12:04:08.467Z,9.00
2023-03-08T12:05:08.405Z,6.20
2023-03-08T12:06:16.261Z,6.10
2023-03-08T12:07:09.435Z,9.10
2023-03-08T12:08:08.325Z,7.20
2023-03-08T12:09:08.390Z,7.90
2023-03-08T12:10:08.381Z,7.10
2023-03-08T12:11:08.220Z,7.80
2023-03-08T12:12:08.220Z,7.10
2023-03-08T12:13:08.199Z,8.00
2023-03-08T12:14:08.190Z,7.80
2023-03-08T12:15:08.226Z,7.30
2023-03-08T12:16:08.194Z,10.10
2023-03-08T12:17:08.336Z,6.70
2023-03-08T12:18:08.135Z,8.60
2023-03-08T12:19:08.147Z,8.80
2023-03-08T12:20:08.108Z,9.70
2023-03-08T12:21:08.088Z,8.60
2023-03-08T12:22:08.099Z,9.40
2023-03-08T12:23:08.154Z,8.20
2023-03-08T12:24:08.102Z,9.90
2023-03-08T12:25:08.036Z,9.80
2023-03-08T12:26:08.016Z,8.40
2023-03-08T12:27:08.006Z,8.00
2023-03-08T12:28:08.053Z,7.60
2023-03-08T12:29:08.056Z,10.40
2023-03-08T12:30:07.967Z,8.80
2023-03-08T12:31:24.845Z,8.40
2023-03-08T12:32:09.164Z,8.10
2023-03-08T12:33:08.091Z,8.10
2023-03-08T12:34:08.688Z,7.90
2023-03-08T12:35:07.919Z,8.60
2023-03-08T12:36:08.014Z,7.60
2023-03-08T12:37:07.922Z,9.60
2023-03-08T12:38:07.896Z,8.40
2023-03-08T12:39:08.011Z,7.50
2023-03-08T12:40:07.986Z,8.20
2023-03-08T12:41:07.888Z,8.40
2023-03-08T12:42:07.841Z,7.30
2023-03-08T12:43:07.799Z,8.00
2023-03-08T12:44:07.810Z,7.50
2023-03-08T12:45:07.779Z,8.10
2023-03-08T12:46:07.845Z,7.60
2023-03-08T12:47:07.760Z,6.30
2023-03-08T12:48:07.758Z,6.10
2023-03-08T12:49:07.740Z,5.90
2023-03-08T12:50:07.719Z,6.20
2023-03-08T12:51:07.724Z,7.30
2023-03-08T12:52:07.699Z,6.30
2023-03-08T12:53:07.687Z,6.80
2023-03-08T12:54:07.687Z,5.90
2023-03-08T12:55:07.647Z,6.00
2023-03-08T12:56:07.648Z,4.90
2023-03-08T12:57:07.635Z,4.20
2023-03-08T12:58:07.617Z,5.20
2023-03-08T12:59:07.617Z,4.80
2023-03-08T13:00:07.595Z,5.50
2023-03-08T13:01:07.619Z,5.20
2023-03-08T13:02:07.566Z,6.70
2023-03-08T13:03:07.545Z,7.10
2023-03-08T13:04:07.604Z,6.00
2023-03-08T13:05:07.586Z,5.70
2023-03-08T13:06:07.516Z,5.00
2023-03-08T13:07:07.494Z,4.90
2023-03-08T13:08:07.490Z,4.80
2023-03-08T13:09:07.491Z,5.00
2023-03-08T13:10:07.472Z,5.40
2023-03-08T13:11:08.278Z,4.60
2023-03-08T13:12:07.438Z,6.70
2023-03-08T13:13:07.427Z,7.30
2023-03-08T13:14:07.433Z,7.60
2023-03-08T13:15:07.403Z,7.20
2023-03-08T13:16:07.388Z,7.40
2023-03-08T13:17:07.364Z,6.50
2023-03-08T13:18:07.356Z,6.60
2023-03-08T13:19:07.396Z,5.70
2023-03-08T13:20:07.365Z,7.10
2023-03-08T13:21:07.315Z,5.70
2023-03-08T13:22:07.307Z,4.90
2023-03-08T13:23:07.316Z,4.50
2023-03-08T13:24:07.293Z,4.40
2023-03-08T13:25:07.284Z,4.90
2023-03-08T13:26:07.292Z,5.10
2023-03-08T13:27:07.233Z,4.90
2023-03-08T13:28:07.244Z,5.10
2023-03-08T13:29:07.264Z,4.90
2023-03-08T13:30:07.353Z,5.90
2023-03-08T13:31:07.227Z,3.80
2023-03-08T13:32:07.284Z,3.60
2023-03-08T13:33:07.173Z,3.90
2023-03-08T13:34:07.174Z,5.90
2023-03-08T13:35:07.135Z,5.10
2023-03-08T13:36:07.187Z,6.10
2023-03-08T13:37:07.113Z,4.50
2023-03-08T13:38:07.111Z,5.10
2023-03-08T13:39:07.125Z,4.90
2023-03-08T13:40:07.080Z,5.00
2023-03-08T13:41:07.066Z,4.50
2023-03-08T13:42:07.058Z,4.60
2023-03-08T13:43:07.030Z,4.40
2023-03-08T13:44:07.070Z,4.50
2023-03-08T13:45:07.018Z,5.00
2023-03-08T13:46:07.057Z,5.40
2023-03-08T13:47:06.978Z,5.10
2023-03-08T13:48:06.983Z,6.40
2023-03-08T13:49:06.971Z,6.50
2023-03-08T13:50:06.959Z,4.40
2023-03-08T13:51:06.930Z,4.50
2023-03-08T13:52:06.931Z,4.70
2023-03-08T13:53:07.072Z,4.40
2023-03-08T13:54:06.921Z,4.10
2023-03-08T13:55:06.891Z,4.90
2023-03-08T13:56:06.942Z,6.00
2023-03-08T13:57:06.934Z,6.50
2023-03-08T13:58:06.842Z,6.10
2023-03-08T13:59:06.865Z,4.40
2023-03-08T14:00:06.827Z,4.30
2023-03-08T14:01:06.871Z,3.70
2023-03-08T14:02:06.825Z,5.60
2023-03-08T14:03:06.846Z,4.20
2023-03-08T14:04:06.869Z,5.40
2023-03-08T14:05:06.745Z,6.40
2023-03-08T14:06:06.837Z,5.50
2023-03-08T14:07:06.720Z,4.90
2023-03-08T14:08:06.773Z,4.90
2023-03-08T14:09:06.699Z,5.40
2023-03-08T14:10:06.695Z,6.90
2023-03-08T14:11:06.686Z,7.50
2023-03-08T14:12:06.750Z,7.10
2023-03-08T14:13:06.648Z,8.90
2023-03-08T14:14:06.660Z,5.20
2023-03-08T14:15:06.674Z,4.30
2023-03-08T14:16:06.634Z,4.40
2023-03-08T14:17:06.645Z,4.90
2023-03-08T14:18:06.645Z,5.70
2023-03-08T14:19:06.606Z,4.30
2023-03-08T14:20:06.611Z,7.10
2023-03-08T14:21:06.571Z,6.50
2023-03-08T14:22:06.539Z,5.10
2023-03-08T14:23:06.545Z,6.20
2023-03-08T14:24:06.548Z,7.20
2023-03-08T14:25:06.540Z,5.50
2023-03-08T14:26:06.469Z,5.40
2023-03-08T14:27:06.461Z,5.20
2023-03-08T14:28:06.471Z,5.20
2023-03-08T14:29:06.434Z,5.20
2023-03-08T14:30:06.443Z,6.40
2023-03-08T14:31:06.468Z,4.60
2023-03-08T14:32:06.581Z,4.00
2023-03-08T14:33:06.397Z,4.80
2023-03-08T14:34:06.368Z,4.70
2023-03-08T14:35:06.418Z,3.60
2023-03-08T14:36:06.359Z,3.90
2023-03-08T14:37:06.335Z,4.70
2023-03-08T14:38:06.316Z,4.30
2023-03-08T14:39:06.317Z,6.20
2023-03-08T14:40:06.317Z,4.30
2023-03-08T14:41:06.332Z,3.90
2023-03-08T14:42:06.257Z,4.10
2023-03-08T14:43:06.269Z,3.60
2023-03-08T14:44:06.249Z,3.80
2023-03-08T14:45:06.242Z,4.50
2023-03-08T14:46:06.309Z,3.30
2023-03-08T14:47:06.194Z,4.20
2023-03-08T14:48:06.182Z,4.00
2023-03-08T14:49:06.254Z,7.60
2023-03-08T14:50:06.164Z,4.10
2023-03-08T14:51:06.162Z,4.80
2023-03-08T14:52:07.952Z,4.70
2023-03-08T14:53:06.121Z,4.30
2023-03-08T14:54:06.104Z,3.60
2023-03-08T14:55:06.119Z,4.60
2023-03-08T14:56:06.085Z,3.40
2023-03-08T14:57:06.070Z,5.50
2023-03-08T14:58:06.051Z,6.40
2023-03-08T14:59:06.048Z,6.10
2023-03-08T15:00:06.026Z,5.50
2023-03-08T15:01:06.030Z,5.50
2023-03-08T15:02:06.046Z,5.50
2023-03-08T15:03:05.989Z,6.60
2023-03-08T15:04:06.005Z,4.60
2023-03-08T15:05:05.966Z,5.00
2023-03-08T15:06:06.000Z,3.90
2023-03-08T15:07:06.019Z,5.90
2023-03-08T15:08:05.916Z,5.10
2023-03-08T15:09:05.906Z,5.50
2023-03-08T15:10:05.928Z,6.80
2023-03-08T15:11:05.894Z,5.40
2023-03-08T15:12:05.945Z,5.60
2023-03-08T15:13:05.853Z,5.70
2023-03-08T15:14:05.842Z,6.30
2023-03-08T15:15:05.832Z,6.20
2023-03-08T15:16:05.829Z,6.00
2023-03-08T15:17:05.817Z,4.70
2023-03-08T15:18:05.804Z,6.00
2023-03-08T15:19:05.799Z,4.70
2023-03-08T15:20:05.802Z,5.30
2023-03-08T15:21:05.766Z,4.90
2023-03-08T15:22:05.755Z,6.20
2023-03-08T15:23:05.729Z,5.40
2023-03-08T15:24:05.701Z,5.40
2023-03-08T15:25:05.698Z,6.00
2023-03-08T15:26:05.704Z,4.50
2023-03-08T15:27:05.692Z,5.90
2023-03-08T15:28:05.662Z,6.50
2023-03-08T15:29:05.646Z,7.90
2023-03-08T15:30:05.667Z,5.70
2023-03-08T15:31:05.642Z,5.70
2023-03-08T15:32:05.688Z,5.50
2023-03-08T15:33:05.598Z,5.80
2023-03-08T15:34:05.583Z,6.10
2023-03-08T15:35:05.568Z,6.70
2023-03-08T15:36:05.571Z,6.30
2023-03-08T15:37:05.537Z,5.00
2023-03-08T15:38:05.551Z,5.90
2023-03-08T15:39:05.505Z,4.90
2023-03-08T15:40:07.747Z,5.60
2023-03-08T15:41:05.519Z,5.50
2023-03-08T15:42:05.514Z,5.60
2023-03-08T15:43:05.486Z,4.70
2023-03-08T15:44:05.454Z,5.70
2023-03-08T15:45:05.439Z,5.00
2023-03-08T15:46:05.443Z,4.10
2023-03-08T15:47:05.494Z,5.20
2023-03-08T15:48:05.398Z,4.60
2023-03-08T15:49:05.417Z,4.90
2023-03-08T15:50:05.397Z,7.70
2023-03-08T15:51:05.351Z,6.60
2023-03-08T15:52:07.581Z,5.30
2023-03-08T15:53:05.335Z,5.70
2023-03-08T15:54:05.320Z,6.80
2023-03-08T15:55:05.298Z,4.70
2023-03-08T15:56:05.297Z,5.40
2023-03-08T15:57:05.290Z,5.80
2023-03-08T15:58:06.782Z,6.20
2023-03-08T15:59:05.239Z,5.80
2023-03-08T16:00:05.237Z,5.30
2023-03-08T16:01:05.230Z,6.60
2023-03-08T16:02:05.356Z,4.10
2023-03-08T16:03:05.207Z,5.10
2023-03-08T16:04:05.187Z,5.10
2023-03-08T16:05:05.216Z,5.80
2023-03-08T16:06:05.167Z,6.30
2023-03-08T16:07:05.188Z,5.80
2023-03-08T16:08:05.155Z,4.60
2023-03-08T16:09:05.127Z,5.60
2023-03-08T16:10:05.125Z,5.30
2023-03-08T16:11:05.087Z,5.20
2023-03-08T16:12:05.098Z,4.90
2023-03-08T16:13:05.067Z,5.80
2023-03-08T16:14:05.072Z,5.30
2023-03-08T16:15:05.126Z,4.30
2023-03-08T16:16:05.090Z,7.20
2023-03-08T16:17:05.207Z,5.70
2023-03-08T16:18:05.069Z,5.20
2023-03-08T16:19:04.991Z,6.40
2023-03-08T16:20:04.989Z,6.60
2023-03-08T16:21:04.962Z,6.10
2023-03-08T16:22:04.985Z,5.40
2023-03-08T16:23:04.953Z,5.00
2023-03-08T16:24:04.937Z,4.90
2023-03-08T16:25:04.922Z,5.30
2023-03-08T16:26:14.645Z,5.90
2023-03-08T16:27:05.905Z,5.70
2023-03-08T16:28:04.926Z,5.60
2023-03-08T16:29:04.875Z,4.60
2023-03-08T16:30:04.860Z,4.40
2023-03-08T16:31:04.852Z,6.10
2023-03-08T16:32:05.019Z,5.70
2023-03-08T16:33:04.813Z,5.80
2023-03-08T16:34:04.821Z,5.90
2023-03-08T16:35:04.793Z,6.70
2023-03-08T16:36:04.909Z,6.40
2023-03-08T16:37:04.771Z,5.30
2023-03-08T16:38:04.761Z,5.70
2023-03-08T16:39:04.741Z,5.70
2023-03-08T16:40:04.748Z,5.20
2023-03-08T16:41:13.538Z,5.50
2023-03-08T16:42:05.711Z,6.50
2023-03-08T16:43:04.700Z,6.10
2023-03-08T16:44:04.686Z,5.70
2023-03-08T16:45:04.669Z,5.30
2023-03-08T16:46:04.752Z,5.90
2023-03-08T16:47:04.626Z,6.40
2023-03-08T16:48:04.665Z,5.80
2023-03-08T16:49:04.606Z,6.70
2023-03-08T16:50:04.620Z,5.70
2023-03-08T16:51:04.588Z,5.30
2023-03-08T16:52:04.596Z,7.50
2023-03-08T16:53:04.569Z,6.70
2023-03-08T16:54:04.546Z,6.90
2023-03-08T16:55:04.524Z,6.20
2023-03-08T16:56:04.528Z,7.30
2023-03-08T16:57:16.681Z,6.20
2023-03-08T16:58:05.501Z,6.20
2023-03-08T17:00:13.352Z,11.60
2023-03-08T17:01:13.483Z,8.50
2023-03-08T17:02:13.339Z,6.60
2023-03-08T17:03:13.320Z,7.30
2023-03-08T17:04:13.300Z,7.00
2023-03-08T17:05:13.283Z,10.40
2023-03-08T17:06:13.294Z,6.10
2023-03-08T17:07:13.257Z,8.20
2023-03-08T17:08:13.264Z,8.70
2023-03-08T17:09:13.239Z,7.20
2023-03-08T17:10:13.222Z,8.10
2023-03-08T17:11:13.203Z,7.30
2023-03-08T17:12:13.196Z,7.20
2023-03-08T17:13:13.188Z,8.50
2023-03-08T17:14:13.168Z,9.10
2023-03-08T17:15:13.162Z,7.30
2023-03-08T17:16:13.238Z,8.70
2023-03-08T17:17:13.155Z,7.10
2023-03-08T17:18:13.145Z,8.00
2023-03-08T17:19:13.108Z,8.90
2023-03-08T17:20:13.094Z,7.40
2023-03-08T17:21:13.080Z,9.10
2023-03-08T17:22:13.067Z,10.20
2023-03-08T17:23:13.058Z,9.50
2023-03-08T17:24:13.035Z,9.30
2023-03-08T17:25:13.025Z,8.70
2023-03-08T17:26:13.046Z,8.10
2023-03-08T17:27:13.007Z,7.50
2023-03-08T17:28:12.996Z,9.40
2023-03-08T17:29:12.967Z,10.00
2023-03-08T17:30:12.966Z,7.30
2023-03-08T17:31:12.976Z,10.00
2023-03-08T17:32:12.998Z,9.10
2023-03-08T17:33:12.945Z,10.20
2023-03-08T17:34:12.907Z,7.80
2023-03-08T17:35:12.892Z,8.70
2023-03-08T17:36:12.989Z,8.60
2023-03-08T17:37:12.865Z,10.30
2023-03-08T17:38:12.874Z,11.40
2023-03-08T17:39:12.846Z,8.40
2023-03-08T17:40:12.837Z,9.20
2023-03-08T17:41:12.819Z,9.10
2023-03-08T17:42:12.810Z,10.10
2023-03-08T17:43:12.802Z,8.80
2023-03-08T17:44:12.786Z,12.70
2023-03-08T17:45:12.770Z,11.10
2023-03-08T17:46:12.818Z,10.00
2023-03-08T17:47:12.732Z,12.10
2023-03-08T17:48:12.722Z,10.80
2023-03-08T17:49:12.725Z,12.10
2023-03-08T17:50:12.711Z,11.10
2023-03-08T17:51:12.681Z,11.80
2023-03-08T17:52:12.673Z,11.90
2023-03-08T17:53:12.662Z,12.70
2023-03-08T17:54:12.770Z,10.30
2023-03-08T17:55:12.633Z,11.80
2023-03-08T17:56:12.627Z,12.30
2023-03-08T17:57:12.613Z,11.00
2023-03-08T17:58:12.601Z,11.70
2023-03-08T17:59:12.593Z,12.70
2023-03-08T18:00:12.574Z,11.50
2023-03-08T18:01:12.552Z,11.60
2023-03-08T18:02:12.592Z,14.40
2023-03-08T18:03:12.532Z,13.00
2023-03-08T18:04:12.544Z,11.70
2023-03-08T18:05:12.523Z,10.70
2023-03-08T18:06:12.501Z,13.20
2023-03-08T18:07:12.482Z,14.30
2023-03-08T18:08:12.471Z,13.20
2023-03-08T18:09:12.463Z,13.80
2023-03-08T18:10:12.441Z,13.00
2023-03-08T18:11:12.434Z,12.70
2023-03-08T18:12:12.435Z,14.70
2023-03-08T18:13:12.433Z,12.90
2023-03-08T18:14:12.425Z,18.80
2023-03-08T18:15:12.414Z,13.60
2023-03-08T18:16:12.461Z,14.10
2023-03-08T18:17:12.355Z,15.40
2023-03-08T18:18:12.349Z,15.20
2023-03-08T18:19:12.382Z,15.20
2023-03-08T18:20:12.325Z,12.30